KSTL/STL METAR and TAF weather

Enter ICAO airport designator
Station Type Date Time Source
KSTL METAR 2021/05/15 23:51 UTC NOAA

KSTL 152351Z 14008KT 10SM BKN075 OVC120 17/08 A3014 RMK AO2 SLP205 60000 T01720078 10189 20167 56014


Station Type Date Time Source
KSTL Decoded METAR 2021/05/15 23:51 UTC NOAA

LAMBERT-ST LOUIS INTERNATIONAL AIRPORT , MO, United States (KSTL) 38-45N 90-22W 171M
May 15, 2021 - 07:51 PM EDT / 2021.05.15 2351 UTC
Wind: from the SE (140 degrees) at 9 MPH (8 KT):0
Visibility: 10 mile(s):0
Sky conditions: overcast
Temperature: 63.0 F (17.2 C)
Dew Point: 46.0 F (7.8 C)
Relative Humidity: 53%
Pressure (altimeter): 30.14 in. Hg (1020 hPa)
Pressure tendency: 0.04 inches (1.4 hPa) lower than three hours ago
ob: KSTL 152351Z 14008KT 10SM BKN075 OVC120 17/08 A3014 RMK AO2 SLP205 60000 T01720078 10189 20167 56014
cycle: 0

Station Type Date Time Source
KSTL TAF 2021/05/15 21:03 UTC NOAA

TAF
AMD KSTL 152101Z 1521/1624 16006KT P6SM BKN050
FM160700 15005KT P6SM SCT006 OVC018
FM161400 13005KT P6SM VCSH BKN015

Example: see airport list